Startpagina
METAR-TAF:

METAR-TAF

Vliegvelden :

Teheran Mehrabad International Airport

Teheran, Iran

breedte: 35-41N, lengte: 051-21E, hoogte: 1204 m

Actueel weer

Dit bericht is 39 minuten geleden gemaakt, om 23:00 UTC
Wind 6 kt uit het noordwesten
Temperatuur 22°C
Vochtigheid 35%
Druk 1016 hPa
Zicht 10 km of meer
geen wolken onder 1500 m en geen cumulonimbus

METAR: OIII 262300Z 32006KT CAVOK 22/06 Q1015 A2999 NOSIG

Tijdstip: 04:09 (23:39 UTC)

Verwachting

Dit bericht is 39 minuten geleden gemaakt, om 23:00 UTC
Verwachting geldig van 27 om 00 UTC tot 28 om 06 UTC
Wind 8 kt uit het westnoordwesten
Zicht: 8000 m
Weinig wolken op 10000 ft
Tijdelijke
van 27 om 11 UTC tot 27 om 15 UTC
Weinig wolken op 3500 ft, Stapelwolken.
Verspreide wolken op 4000 ft
Tijdelijke
van 27 om 15 UTC tot 27 om 20 UTC
Wind 21 kt uit het westnoordwesten
Zicht: 4000 m
zand

TAF: OIII 262300Z 2700/2806 30004MPS 8000 FEW100 TEMPO 2711/2715 FEW035TCU SCT040 TEMPO 2715/2720 30011MPS 4000 SA

Waarnemingen en weersverwachtingen van meer dan 4000 vliegvelden (METAR en TAF).

De beschikbare stations zijn de gele en rode punten op de kaart.

Ga met uw muis naar het station om de naam te zien.

Klik dan om waarnemingen en weersverwachtingen te zien.

kaart wijzigen: klik op de groene knoppen met een zwart kruis om in te zoomen, op de groene knop met een streepje om uit te zoomen of op de groene pijlen voor aangrenzende kaarten.


METAR-TAF: